sensor_id;sensor_type;location;lat;lon;timestamp;pressure;altitude;pressure_sealevel;temperature;humidity
16821;BME280;8527;49.740;6.604;2022-08-25T00:05:08;99773.94;;;21.33;59.69
16821;BME280;8527;49.740;6.604;2022-08-25T00:10:12;99769.34;;;21.46;59.86
16821;BME280;8527;49.740;6.604;2022-08-25T00:15:17;99768.91;;;21.25;58.54
16821;BME280;8527;49.740;6.604;2022-08-25T00:20:20;99785.47;;;21.17;59.85
16821;BME280;8527;49.740;6.604;2022-08-25T00:25:22;99786.22;;;21.00;60.20
16821;BME280;8527;49.740;6.604;2022-08-25T00:30:22;99788.47;;;20.91;60.67
16821;BME280;8527;49.740;6.604;2022-08-25T00:35:24;99789.28;;;21.04;59.80
16821;BME280;8527;49.740;6.604;2022-08-25T00:40:27;99777.91;;;21.02;59.18
16821;BME280;8527;49.740;6.604;2022-08-25T00:45:26;99789.41;;;20.97;60.48
16821;BME280;8527;49.740;6.604;2022-08-25T00:50:27;99800.03;;;20.80;60.45
16821;BME280;8527;49.740;6.604;2022-08-25T00:55:32;99793.13;;;20.72;60.87
16821;BME280;8527;49.740;6.604;2022-08-25T01:00:37;99796.31;;;20.69;60.86
16821;BME280;8527;49.740;6.604;2022-08-25T01:05:42;99792.31;;;20.48;60.57
16821;BME280;8527;49.740;6.604;2022-08-25T01:10:44;99793.81;;;20.32;62.44
16821;BME280;8527;49.740;6.604;2022-08-25T01:15:44;99795.59;;;20.50;61.36
16821;BME280;8527;49.740;6.604;2022-08-25T01:20:52;99796.97;;;20.29;62.98
16821;BME280;8527;49.740;6.604;2022-08-25T01:25:57;99807.28;;;20.32;61.85
16821;BME280;8527;49.740;6.604;2022-08-25T01:30:57;99800.00;;;20.32;61.95
16821;BME280;8527;49.740;6.604;2022-08-25T01:35:58;99802.34;;;20.17;62.25
16821;BME280;8527;49.740;6.604;2022-08-25T01:40:57;99813.13;;;20.29;63.25
16821;BME280;8527;49.740;6.604;2022-08-25T01:45:56;99807.66;;;20.35;61.95
16821;BME280;8527;49.740;6.604;2022-08-25T01:50:55;99818.91;;;20.02;62.94
16821;BME280;8527;49.740;6.604;2022-08-25T01:56:07;99819.38;;;19.99;63.85
16821;BME280;8527;49.740;6.604;2022-08-25T02:01:07;99809.25;;;19.82;64.73
16821;BME280;8527;49.740;6.604;2022-08-25T02:06:12;99821.94;;;19.75;65.32
16821;BME280;8527;49.740;6.604;2022-08-25T02:11:13;99821.66;;;19.64;65.65
16821;BME280;8527;49.740;6.604;2022-08-25T02:16:17;99809.59;;;19.55;65.73
16821;BME280;8527;49.740;6.604;2022-08-25T02:21:20;99811.38;;;19.61;64.88
16821;BME280;8527;49.740;6.604;2022-08-25T02:26:21;99802.41;;;19.67;64.58
16821;BME280;8527;49.740;6.604;2022-08-25T02:31:22;99794.31;;;19.67;63.72
16821;BME280;8527;49.740;6.604;2022-08-25T02:36:22;99789.16;;;19.66;64.76
16821;BME280;8527;49.740;6.604;2022-08-25T02:41:27;99789.66;;;19.25;66.75
16821;BME280;8527;49.740;6.604;2022-08-25T02:46:34;99789.78;;;19.49;65.46
16821;BME280;8527;49.740;6.604;2022-08-25T02:51:33;99792.56;;;19.43;65.80
16821;BME280;8527;49.740;6.604;2022-08-25T02:56:35;99789.34;;;19.34;66.01
16821;BME280;8527;49.740;6.604;2022-08-25T03:01:37;99789.97;;;19.36;65.90
16821;BME280;8527;49.740;6.604;2022-08-25T03:06:35;99797.16;;;18.98;68.38
16821;BME280;8527;49.740;6.604;2022-08-25T03:11:36;99787.59;;;19.09;65.56
16821;BME280;8527;49.740;6.604;2022-08-25T03:16:38;99789.22;;;19.10;67.04
16821;BME280;8527;49.740;6.604;2022-08-25T03:21:38;99791.59;;;19.18;66.72
16821;BME280;8527;49.740;6.604;2022-08-25T03:26:43;99800.50;;;19.19;65.66
16821;BME280;8527;49.740;6.604;2022-08-25T03:31:54;99794.28;;;19.00;66.23
16821;BME280;8527;49.740;6.604;2022-08-25T03:37:04;99796.19;;;18.92;67.66
16821;BME280;8527;49.740;6.604;2022-08-25T03:42:06;99799.59;;;18.81;67.79
16821;BME280;8527;49.740;6.604;2022-08-25T03:47:11;99794.41;;;18.86;67.25
16821;BME280;8527;49.740;6.604;2022-08-25T03:52:10;99791.78;;;18.79;67.33
16821;BME280;8527;49.740;6.604;2022-08-25T03:57:11;99785.44;;;18.74;69.11
16821;BME280;8527;49.740;6.604;2022-08-25T04:02:19;99782.16;;;18.72;69.21
16821;BME280;8527;49.740;6.604;2022-08-25T04:07:20;99790.63;;;18.68;67.63
16821;BME280;8527;49.740;6.604;2022-08-25T04:12:21;99786.31;;;18.67;67.85
16821;BME280;8527;49.740;6.604;2022-08-25T04:17:24;99784.56;;;18.54;69.37
16821;BME280;8527;49.740;6.604;2022-08-25T04:22:22;99784.78;;;18.53;69.45
16821;BME280;8527;49.740;6.604;2022-08-25T04:27:24;99780.63;;;18.32;67.41
16821;BME280;8527;49.740;6.604;2022-08-25T04:32:24;99780.19;;;18.35;70.06
16821;BME280;8527;49.740;6.604;2022-08-25T04:37:27;99778.59;;;18.27;69.18
16821;BME280;8527;49.740;6.604;2022-08-25T04:42:30;99773.13;;;18.40;69.75
16821;BME280;8527;49.740;6.604;2022-08-25T04:47:34;99761.19;;;18.36;70.09
16821;BME280;8527;49.740;6.604;2022-08-25T04:52:38;99758.31;;;18.31;70.68
16821;BME280;8527;49.740;6.604;2022-08-25T04:57:43;99763.31;;;18.27;69.24
16821;BME280;8527;49.740;6.604;2022-08-25T05:02:43;99759.00;;;18.20;70.12
16821;BME280;8527;49.740;6.604;2022-08-25T05:07:44;99754.28;;;18.22;70.39
16821;BME280;8527;49.740;6.604;2022-08-25T05:12:48;99753.44;;;18.21;71.43
16821;BME280;8527;49.740;6.604;2022-08-25T05:17:47;99747.19;;;18.27;70.79
16821;BME280;8527;49.740;6.604;2022-08-25T05:22:48;99739.28;;;18.07;71.79
16821;BME280;8527;49.740;6.604;2022-08-25T05:27:49;99735.63;;;18.27;70.82
16821;BME280;8527;49.740;6.604;2022-08-25T05:32:48;99729.75;;;17.79;74.41
16821;BME280;8527;49.740;6.604;2022-08-25T05:37:46;99731.16;;;17.89;74.46
16821;BME280;8527;49.740;6.604;2022-08-25T05:42:49;99735.25;;;17.59;75.36
16821;BME280;8527;49.740;6.604;2022-08-25T05:47:49;99734.38;;;17.97;74.11
16821;BME280;8527;49.740;6.604;2022-08-25T05:52:47;99727.38;;;17.96;74.18
16821;BME280;8527;49.740;6.604;2022-08-25T05:57:46;99730.88;;;17.97;74.00
16821;BME280;8527;49.740;6.604;2022-08-25T06:02:47;99725.38;;;18.17;73.78
16821;BME280;8527;49.740;6.604;2022-08-25T06:07:50;99726.06;;;18.31;73.12
16821;BME280;8527;49.740;6.604;2022-08-25T06:12:53;99728.44;;;18.46;72.76
16821;BME280;8527;49.740;6.604;2022-08-25T06:17:54;99717.78;;;18.58;72.43
16821;BME280;8527;49.740;6.604;2022-08-25T06:23:03;99719.19;;;18.98;70.79
16821;BME280;8527;49.740;6.604;2022-08-25T06:28:02;99724.41;;;19.00;70.29
16821;BME280;8527;49.740;6.604;2022-08-25T06:33:03;99724.84;;;19.46;68.79
16821;BME280;8527;49.740;6.604;2022-08-25T06:38:02;99723.47;;;19.55;68.38
16821;BME280;8527;49.740;6.604;2022-08-25T06:43:00;99722.69;;;19.66;67.19
16821;BME280;8527;49.740;6.604;2022-08-25T06:48:04;99729.09;;;19.65;67.34
16821;BME280;8527;49.740;6.604;2022-08-25T06:53:03;99727.41;;;19.83;66.04
16821;BME280;8527;49.740;6.604;2022-08-25T06:58:03;99722.47;;;20.10;65.41
16821;BME280;8527;49.740;6.604;2022-08-25T07:03:07;99718.97;;;20.34;64.45
16821;BME280;8527;49.740;6.604;2022-08-25T07:08:05;99726.69;;;20.54;63.55
16821;BME280;8527;49.740;6.604;2022-08-25T07:13:06;99730.28;;;20.72;62.79
16821;BME280;8527;49.740;6.604;2022-08-25T07:18:13;99722.34;;;20.77;63.18
16821;BME280;8527;49.740;6.604;2022-08-25T07:23:11;99730.22;;;21.19;61.67
16821;BME280;8527;49.740;6.604;2022-08-25T07:28:10;99732.94;;;21.48;60.51
16821;BME280;8527;49.740;6.604;2022-08-25T07:33:15;99730.00;;;21.96;59.43
16821;BME280;8527;49.740;6.604;2022-08-25T07:38:13;99739.25;;;22.34;57.57
16821;BME280;8527;49.740;6.604;2022-08-25T07:43:12;99726.75;;;22.85;57.32
16821;BME280;8527;49.740;6.604;2022-08-25T07:48:23;99730.22;;;23.52;54.96
16821;BME280;8527;49.740;6.604;2022-08-25T07:53:22;99723.13;;;24.44;52.72
16821;BME280;8527;49.740;6.604;2022-08-25T07:58:20;99713.16;;;24.55;51.77
16821;BME280;8527;49.740;6.604;2022-08-25T08:03:24;99711.75;;;24.95;51.64
16821;BME280;8527;49.740;6.604;2022-08-25T08:08:28;99713.25;;;25.45;50.36
16821;BME280;8527;49.740;6.604;2022-08-25T08:13:31;99710.78;;;26.62;48.21
16821;BME280;8527;49.740;6.604;2022-08-25T08:18:32;99707.97;;;26.83;47.47
16821;BME280;8527;49.740;6.604;2022-08-25T08:23:30;99700.03;;;27.47;46.62
16821;BME280;8527;49.740;6.604;2022-08-25T08:28:29;99683.19;;;28.09;45.61
16821;BME280;8527;49.740;6.604;2022-08-25T08:33:27;99688.00;;;28.23;45.87
16821;BME280;8527;49.740;6.604;2022-08-25T08:38:29;99694.31;;;27.04;47.83
16821;BME280;8527;49.740;6.604;2022-08-25T08:43:30;99676.63;;;28.11;46.06
16821;BME280;8527;49.740;6.604;2022-08-25T08:48:43;99674.41;;;28.18;46.57
16821;BME280;8527;49.740;6.604;2022-08-25T08:53:56;99670.94;;;28.61;45.07
16821;BME280;8527;49.740;6.604;2022-08-25T08:59:05;99690.28;;;29.27;44.66
16821;BME280;8527;49.740;6.604;2022-08-25T09:04:12;99684.59;;;29.04;45.47
16821;BME280;8527;49.740;6.604;2022-08-25T09:09:19;99677.81;;;29.02;44.79
16821;BME280;8527;49.740;6.604;2022-08-25T09:14:34;99673.41;;;30.53;42.27
16821;BME280;8527;49.740;6.604;2022-08-25T09:19:59;99662.75;;;30.51;43.21
16821;BME280;8527;49.740;6.604;2022-08-25T09:25:11;99662.56;;;30.20;42.95
16821;BME280;8527;49.740;6.604;2022-08-25T09:30:14;99662.47;;;30.39;41.87
16821;BME280;8527;49.740;6.604;2022-08-25T09:35:16;99655.38;;;30.52;41.63
16821;BME280;8527;49.740;6.604;2022-08-25T09:40:18;99652.03;;;30.41;42.51
16821;BME280;8527;49.740;6.604;2022-08-25T09:45:38;99642.09;;;30.31;42.47
16821;BME280;8527;49.740;6.604;2022-08-25T09:50:40;99637.63;;;30.07;42.33
16821;BME280;8527;49.740;6.604;2022-08-25T09:55:43;99625.72;;;31.19;40.87
16821;BME280;8527;49.740;6.604;2022-08-25T10:00:43;99627.25;;;31.25;40.21
16821;BME280;8527;49.740;6.604;2022-08-25T10:05:56;99613.03;;;31.46;39.09
16821;BME280;8527;49.740;6.604;2022-08-25T10:10:59;99614.13;;;32.31;39.65
16821;BME280;8527;49.740;6.604;2022-08-25T10:16:03;99603.75;;;31.55;38.81
16821;BME280;8527;49.740;6.604;2022-08-25T10:21:06;99598.22;;;32.77;38.35
16821;BME280;8527;49.740;6.604;2022-08-25T10:26:19;99587.69;;;33.49;37.11
16821;BME280;8527;49.740;6.604;2022-08-25T10:31:23;99584.44;;;32.41;37.99
16821;BME280;8527;49.740;6.604;2022-08-25T10:36:30;99569.47;;;31.44;39.06
16821;BME280;8527;49.740;6.604;2022-08-25T10:41:45;99573.47;;;31.61;39.21
16821;BME280;8527;49.740;6.604;2022-08-25T10:46:53;99555.72;;;31.98;38.92
16821;BME280;8527;49.740;6.604;2022-08-25T10:51:56;99552.13;;;31.26;39.25
16821;BME280;8527;49.740;6.604;2022-08-25T10:57:07;99555.88;;;31.30;38.70
16821;BME280;8527;49.740;6.604;2022-08-25T11:07:43;99532.44;;;31.55;38.01
16821;BME280;8527;49.740;6.604;2022-08-25T11:12:49;99522.66;;;31.72;37.82
16821;BME280;8527;49.740;6.604;2022-08-25T11:17:56;99522.31;;;31.96;37.53
16821;BME280;8527;49.740;6.604;2022-08-25T11:23:04;99526.00;;;32.00;36.57
16821;BME280;8527;49.740;6.604;2022-08-25T11:28:10;99516.19;;;32.08;35.12
16821;BME280;8527;49.740;6.604;2022-08-25T11:33:11;99508.84;;;32.53;34.74
16821;BME280;8527;49.740;6.604;2022-08-25T11:38:24;99513.13;;;32.10;33.37
16821;BME280;8527;49.740;6.604;2022-08-25T11:43:48;99500.09;;;33.13;33.14
16821;BME280;8527;49.740;6.604;2022-08-25T11:48:59;99484.41;;;33.91;32.77
16821;BME280;8527;49.740;6.604;2022-08-25T11:54:17;99492.59;;;33.31;32.02
16821;BME280;8527;49.740;6.604;2022-08-25T12:05:08;99481.53;;;32.92;33.95
16821;BME280;8527;49.740;6.604;2022-08-25T12:10:24;99485.91;;;33.49;32.19
16821;BME280;8527;49.740;6.604;2022-08-25T12:15:25;99475.19;;;32.21;34.51
16821;BME280;8527;49.740;6.604;2022-08-25T12:26:03;99466.22;;;32.55;33.70
16821;BME280;8527;49.740;6.604;2022-08-25T12:31:18;99471.66;;;33.00;31.51
16821;BME280;8527;49.740;6.604;2022-08-25T12:36:27;99461.97;;;32.84;31.35
16821;BME280;8527;49.740;6.604;2022-08-25T12:41:36;99461.59;;;33.13;31.11
16821;BME280;8527;49.740;6.604;2022-08-25T12:47:05;99457.13;;;32.90;31.22
16821;BME280;8527;49.740;6.604;2022-08-25T12:52:04;99451.75;;;32.85;31.26
16821;BME280;8527;49.740;6.604;2022-08-25T13:02:52;99440.63;;;32.11;32.80
16821;BME280;8527;49.740;6.604;2022-08-25T13:08:21;99438.25;;;32.53;32.17
16821;BME280;8527;49.740;6.604;2022-08-25T13:13:37;99428.72;;;32.60;31.72
16821;BME280;8527;49.740;6.604;2022-08-25T13:18:43;99433.09;;;32.52;32.00
16821;BME280;8527;49.740;6.604;2022-08-25T13:23:46;99415.97;;;32.46;31.02
16821;BME280;8527;49.740;6.604;2022-08-25T13:28:50;99429.31;;;31.95;31.95
16821;BME280;8527;49.740;6.604;2022-08-25T13:33:55;99414.16;;;32.15;31.10
16821;BME280;8527;49.740;6.604;2022-08-25T13:39:10;99404.66;;;32.21;31.65
16821;BME280;8527;49.740;6.604;2022-08-25T13:44:12;99404.19;;;32.37;30.66
16821;BME280;8527;49.740;6.604;2022-08-25T13:49:11;99398.84;;;32.32;31.46
16821;BME280;8527;49.740;6.604;2022-08-25T13:54:26;99413.19;;;32.20;31.33
16821;BME280;8527;49.740;6.604;2022-08-25T13:59:33;99399.94;;;32.22;31.10
16821;BME280;8527;49.740;6.604;2022-08-25T14:04:45;99380.59;;;32.45;30.94
16821;BME280;8527;49.740;6.604;2022-08-25T14:10:04;99389.00;;;32.39;30.61
16821;BME280;8527;49.740;6.604;2022-08-25T14:15:10;99374.91;;;32.32;30.40
16821;BME280;8527;49.740;6.604;2022-08-25T14:20:21;99376.25;;;32.17;30.52
16821;BME280;8527;49.740;6.604;2022-08-25T14:25:23;99367.69;;;32.36;31.13
16821;BME280;8527;49.740;6.604;2022-08-25T14:30:36;99377.19;;;32.21;30.60
16821;BME280;8527;49.740;6.604;2022-08-25T14:35:37;99370.59;;;32.13;30.12
16821;BME280;8527;49.740;6.604;2022-08-25T14:40:43;99380.09;;;31.98;30.48
16821;BME280;8527;49.740;6.604;2022-08-25T14:45:46;99370.59;;;32.05;31.58
16821;BME280;8527;49.740;6.604;2022-08-25T14:50:45;99369.44;;;32.14;30.12
16821;BME280;8527;49.740;6.604;2022-08-25T14:55:46;99364.44;;;32.17;30.88
16821;BME280;8527;49.740;6.604;2022-08-25T15:00:50;99357.03;;;32.17;30.53
16821;BME280;8527;49.740;6.604;2022-08-25T15:05:49;99355.41;;;32.25;31.08
16821;BME280;8527;49.740;6.604;2022-08-25T15:10:56;99350.06;;;32.20;31.32
16821;BME280;8527;49.740;6.604;2022-08-25T15:15:57;99346.69;;;32.05;31.61
16821;BME280;8527;49.740;6.604;2022-08-25T15:20:56;99351.19;;;32.10;31.23
16821;BME280;8527;49.740;6.604;2022-08-25T15:25:55;99351.06;;;31.89;31.67
16821;BME280;8527;49.740;6.604;2022-08-25T15:30:57;99335.53;;;31.93;31.83
16821;BME280;8527;49.740;6.604;2022-08-25T15:35:56;99338.63;;;32.00;31.65
16821;BME280;8527;49.740;6.604;2022-08-25T15:40:54;99333.59;;;32.20;31.84
16821;BME280;8527;49.740;6.604;2022-08-25T15:45:59;99344.75;;;32.06;32.25
16821;BME280;8527;49.740;6.604;2022-08-25T15:50:58;99341.84;;;32.02;31.94
16821;BME280;8527;49.740;6.604;2022-08-25T15:55:59;99341.50;;;31.95;32.10
16821;BME280;8527;49.740;6.604;2022-08-25T16:01:02;99340.38;;;31.87;31.95
16821;BME280;8527;49.740;6.604;2022-08-25T16:06:04;99343.47;;;31.94;32.43
16821;BME280;8527;49.740;6.604;2022-08-25T16:11:03;99336.38;;;31.93;32.57
16821;BME280;8527;49.740;6.604;2022-08-25T16:16:05;99331.03;;;32.06;32.37
16821;BME280;8527;49.740;6.604;2022-08-25T16:21:13;99332.31;;;31.99;32.60
16821;BME280;8527;49.740;6.604;2022-08-25T16:26:14;99327.78;;;31.95;33.01
16821;BME280;8527;49.740;6.604;2022-08-25T16:31:16;99321.81;;;31.93;32.63
16821;BME280;8527;49.740;6.604;2022-08-25T16:36:19;99324.88;;;31.82;33.25
16821;BME280;8527;49.740;6.604;2022-08-25T16:41:20;99320.69;;;31.76;32.94
16821;BME280;8527;49.740;6.604;2022-08-25T16:46:29;99316.94;;;31.72;33.15
16821;BME280;8527;49.740;6.604;2022-08-25T16:51:32;99314.75;;;31.83;33.53
16821;BME280;8527;49.740;6.604;2022-08-25T16:56:35;99320.03;;;31.70;32.70
16821;BME280;8527;49.740;6.604;2022-08-25T17:01:40;99316.28;;;31.57;33.96
16821;BME280;8527;49.740;6.604;2022-08-25T17:06:41;99314.38;;;31.49;35.42
16821;BME280;8527;49.740;6.604;2022-08-25T17:11:43;99314.38;;;31.49;35.73
16821;BME280;8527;49.740;6.604;2022-08-25T17:16:45;99309.97;;;31.30;36.86
16821;BME280;8527;49.740;6.604;2022-08-25T17:21:49;99312.81;;;31.16;37.15
16821;BME280;8527;49.740;6.604;2022-08-25T17:26:48;99319.34;;;30.98;37.72
16821;BME280;8527;49.740;6.604;2022-08-25T17:31:50;99307.31;;;30.76;38.98
16821;BME280;8527;49.740;6.604;2022-08-25T17:36:49;99312.19;;;30.79;39.52
16821;BME280;8527;49.740;6.604;2022-08-25T17:41:52;99311.84;;;30.49;41.21
16821;BME280;8527;49.740;6.604;2022-08-25T17:47:04;99315.16;;;30.14;40.99
16821;BME280;8527;49.740;6.604;2022-08-25T17:52:04;99319.91;;;29.86;42.08
16821;BME280;8527;49.740;6.604;2022-08-25T17:57:08;99315.69;;;29.80;41.46
16821;BME280;8527;49.740;6.604;2022-08-25T18:02:13;99318.72;;;29.78;41.25
16821;BME280;8527;49.740;6.604;2022-08-25T18:07:11;99323.13;;;29.51;42.06
16821;BME280;8527;49.740;6.604;2022-08-25T18:12:10;99323.63;;;29.53;42.46
16821;BME280;8527;49.740;6.604;2022-08-25T18:17:23;99332.25;;;29.46;42.14
16821;BME280;8527;49.740;6.604;2022-08-25T18:22:25;99333.75;;;29.39;41.80
16821;BME280;8527;49.740;6.604;2022-08-25T18:27:25;99336.81;;;29.23;42.84
16821;BME280;8527;49.740;6.604;2022-08-25T18:32:30;99340.03;;;29.25;41.98
16821;BME280;8527;49.740;6.604;2022-08-25T18:37:29;99337.50;;;29.01;43.02
16821;BME280;8527;49.740;6.604;2022-08-25T18:42:40;99334.56;;;28.83;43.29
16821;BME280;8527;49.740;6.604;2022-08-25T18:47:44;99340.88;;;28.64;43.27
16821;BME280;8527;49.740;6.604;2022-08-25T18:52:44;99338.59;;;28.53;43.30
16821;BME280;8527;49.740;6.604;2022-08-25T18:57:42;99344.94;;;28.34;43.79
16821;BME280;8527;49.740;6.604;2022-08-25T19:02:47;99347.34;;;28.16;44.40
16821;BME280;8527;49.740;6.604;2022-08-25T19:07:46;99350.44;;;28.09;45.12
16821;BME280;8527;49.740;6.604;2022-08-25T19:12:46;99357.47;;;27.97;44.35
16821;BME280;8527;49.740;6.604;2022-08-25T19:17:47;99368.50;;;27.67;46.51
16821;BME280;8527;49.740;6.604;2022-08-25T19:22:48;99370.03;;;27.49;47.58
16821;BME280;8527;49.740;6.604;2022-08-25T19:27:50;99364.94;;;27.42;47.57
16821;BME280;8527;49.740;6.604;2022-08-25T19:32:51;99368.25;;;27.39;46.96
16821;BME280;8527;49.740;6.604;2022-08-25T19:37:51;99361.50;;;27.12;47.70
16821;BME280;8527;49.740;6.604;2022-08-25T19:42:50;99373.25;;;27.07;48.57
16821;BME280;8527;49.740;6.604;2022-08-25T19:47:52;99371.72;;;26.96;49.01
16821;BME280;8527;49.740;6.604;2022-08-25T19:52:50;99381.31;;;26.83;48.64
16821;BME280;8527;49.740;6.604;2022-08-25T19:57:50;99377.22;;;26.56;50.24
16821;BME280;8527;49.740;6.604;2022-08-25T20:02:51;99385.84;;;26.29;51.45
16821;BME280;8527;49.740;6.604;2022-08-25T20:07:51;99387.41;;;26.40;50.07
16821;BME280;8527;49.740;6.604;2022-08-25T20:12:50;99387.75;;;26.28;50.44
16821;BME280;8527;49.740;6.604;2022-08-25T20:17:52;99385.53;;;26.35;50.15
16821;BME280;8527;49.740;6.604;2022-08-25T20:22:50;99378.25;;;26.25;49.97
16821;BME280;8527;49.740;6.604;2022-08-25T20:28:09;99389.72;;;26.12;51.28
16821;BME280;8527;49.740;6.604;2022-08-25T20:33:10;99389.56;;;25.98;51.42
16821;BME280;8527;49.740;6.604;2022-08-25T20:38:08;99394.22;;;25.87;51.64
16821;BME280;8527;49.740;6.604;2022-08-25T20:43:07;99391.03;;;25.75;53.44
16821;BME280;8527;49.740;6.604;2022-08-25T20:48:06;99382.69;;;25.55;53.73
16821;BME280;8527;49.740;6.604;2022-08-25T20:53:07;99397.91;;;25.51;52.43
16821;BME280;8527;49.740;6.604;2022-08-25T20:58:05;99398.22;;;25.29;54.57
16821;BME280;8527;49.740;6.604;2022-08-25T21:03:04;99410.75;;;25.20;54.06
16821;BME280;8527;49.740;6.604;2022-08-25T21:08:02;99412.34;;;25.31;53.97
16821;BME280;8527;49.740;6.604;2022-08-25T21:13:04;99405.84;;;25.22;55.14
16821;BME280;8527;49.740;6.604;2022-08-25T21:18:02;99399.66;;;24.90;54.67
16821;BME280;8527;49.740;6.604;2022-08-25T21:23:01;99410.22;;;24.86;55.29
16821;BME280;8527;49.740;6.604;2022-08-25T21:27:59;99416.75;;;24.80;55.51
16821;BME280;8527;49.740;6.604;2022-08-25T21:33:00;99415.91;;;24.64;55.87
16821;BME280;8527;49.740;6.604;2022-08-25T21:37:59;99417.25;;;24.56;56.56
16821;BME280;8527;49.740;6.604;2022-08-25T21:42:57;99423.22;;;24.74;56.37
16821;BME280;8527;49.740;6.604;2022-08-25T21:47:56;99420.78;;;24.62;56.07
16821;BME280;8527;49.740;6.604;2022-08-25T21:52:57;99420.75;;;24.26;58.96
16821;BME280;8527;49.740;6.604;2022-08-25T21:57:59;99420.19;;;24.29;56.65
16821;BME280;8527;49.740;6.604;2022-08-25T22:02:57;99422.09;;;24.18;57.90
16821;BME280;8527;49.740;6.604;2022-08-25T22:07:59;99423.13;;;24.07;58.98
16821;BME280;8527;49.740;6.604;2022-08-25T22:12:57;99432.88;;;24.13;58.49
16821;BME280;8527;49.740;6.604;2022-08-25T22:17:55;99432.88;;;24.13;58.03
16821;BME280;8527;49.740;6.604;2022-08-25T22:22:54;99422.59;;;24.10;58.48
16821;BME280;8527;49.740;6.604;2022-08-25T22:28:00;99420.34;;;23.96;57.80
16821;BME280;8527;49.740;6.604;2022-08-25T22:32:58;99424.41;;;23.88;58.99
16821;BME280;8527;49.740;6.604;2022-08-25T22:37:57;99415.44;;;23.78;58.88
16821;BME280;8527;49.740;6.604;2022-08-25T22:42:58;99422.97;;;23.65;59.91
16821;BME280;8527;49.740;6.604;2022-08-25T22:47:56;99425.06;;;23.58;59.77
16821;BME280;8527;49.740;6.604;2022-08-25T22:52:58;99425.31;;;23.51;60.67
16821;BME280;8527;49.740;6.604;2022-08-25T22:58:05;99422.78;;;23.34;60.79
16821;BME280;8527;49.740;6.604;2022-08-25T23:03:06;99426.09;;;23.41;58.98
16821;BME280;8527;49.740;6.604;2022-08-25T23:08:05;99419.22;;;23.28;60.70
16821;BME280;8527;49.740;6.604;2022-08-25T23:13:06;99414.22;;;23.10;62.22
16821;BME280;8527;49.740;6.604;2022-08-25T23:18:04;99426.28;;;22.97;61.74
16821;BME280;8527;49.740;6.604;2022-08-25T23:23:06;99417.88;;;22.93;63.06
16821;BME280;8527;49.740;6.604;2022-08-25T23:28:07;99421.84;;;22.80;63.68
16821;BME280;8527;49.740;6.604;2022-08-25T23:33:06;99428.56;;;22.77;63.10
16821;BME280;8527;49.740;6.604;2022-08-25T23:38:06;99427.03;;;22.87;61.59
16821;BME280;8527;49.740;6.604;2022-08-25T23:43:12;99427.13;;;22.65;63.48
16821;BME280;8527;49.740;6.604;2022-08-25T23:48:11;99425.56;;;22.74;62.34
16821;BME280;8527;49.740;6.604;2022-08-25T23:53:11;99432.56;;;22.70;64.03
16821;BME280;8527;49.740;6.604;2022-08-25T23:58:12;99426.47;;;22.52;63.71
